Time,TemperatureF,DewpointF,PressureIn,WindDirection,WindDirectionDegrees,WindSpeedMPH,WindSpeedGustMPH,Humidity,HourlyPrecipIn,Conditions,Clouds,dailyrainin,SoftwareType,DateUTC
2013-01-19 00:53:00,30.0,29.0,30.44,ESE,108,0.0,-999.0,96,-99.99,,,0.00,,2013-01-19 06:53:00,
2013-01-19 01:02:00,29.0,28.0,30.44,ESE,108,0.0,-999.0,96,-99.99,,,0.00,,2013-01-19 07:02:00,
2013-01-19 01:12:00,29.0,28.0,30.44,ESE,108,0.0,-999.0,96,-99.99,,,0.00,,2013-01-19 07:12:00,
2013-01-19 01:22:00,29.0,28.0,30.44,ESE,108,0.0,-999.0,96,-99.99,,,0.00,,2013-01-19 07:22:00,
2013-01-19 01:32:00,29.0,28.0,30.45,ESE,108,0.0,-999.0,96,-99.99,,,0.00,,2013-01-19 07:32:00,
2013-01-19 01:42:00,29.0,28.0,30.45,ESE,108,0.0,-999.0,96,-99.99,,,0.00,,2013-01-19 07:42:00,
2013-01-19 01:52:00,29.0,28.0,30.45,ESE,108,0.0,-999.0,96,-99.99,,,0.00,,2013-01-19 07:52:00,
2013-01-19 02:02:00,30.0,29.0,30.44,ESE,108,1.0,-999.0,97,-99.99,,,0.00,,2013-01-19 08:02:00,
2013-01-19 02:12:00,30.0,29.0,30.44,ESE,108,1.0,-999.0,97,-99.99,,,0.00,,2013-01-19 08:12:00,
2013-01-19 02:22:00,30.0,29.0,30.44,ESE,108,1.0,-999.0,97,-99.99,,,0.00,,2013-01-19 08:22:00,
2013-01-19 02:32:00,29.0,28.0,30.44,ESE,108,0.0,-999.0,97,-99.99,,,0.00,,2013-01-19 08:32:00,
2013-01-19 02:43:00,29.0,28.0,30.44,ESE,108,0.0,-999.0,97,-99.99,,,0.00,,2013-01-19 08:43:00,
2013-01-19 02:53:00,30.0,29.0,30.44,ESE,119,2.0,-999.0,97,-99.99,,,0.00,,2013-01-19 08:53:00,
2013-01-19 03:02:00,30.0,29.0,30.44,ESE,118,2.0,-999.0,97,-99.99,,,0.00,,2013-01-19 09:02:00,
2013-01-19 03:12:00,30.0,29.0,30.44,ESE,118,2.0,-999.0,97,-99.99,,,0.00,,2013-01-19 09:12:00,
2013-01-19 03:22:00,30.0,29.0,30.44,ESE,118,2.0,-999.0,97,-99.99,,,0.00,,2013-01-19 09:22:00,
2013-01-19 03:32:00,31.0,30.0,30.43,East,95,2.0,-999.0,97,-99.99,,,0.00,,2013-01-19 09:32:00,
2013-01-19 03:42:00,31.0,30.0,30.43,East,95,2.0,-999.0,97,-99.99,,,0.00,,2013-01-19 09:42:00,
2013-01-19 03:53:00,30.0,29.0,30.42,East,95,1.0,-999.0,97,-99.99,,,0.00,,2013-01-19 09:53:00,
2013-01-19 04:02:00,30.0,29.0,30.42,East,95,1.0,-999.0,97,-99.99,,,0.00,,2013-01-19 10:02:00,
2013-01-19 04:12:00,30.0,29.0,30.42,East,95,1.0,-999.0,97,-99.99,,,0.00,,2013-01-19 10:12:00,
2013-01-19 04:22:00,31.0,30.0,30.42,ESE,113,2.0,-999.0,97,-99.99,,,0.00,,2013-01-19 10:22:00,
2013-01-19 04:32:00,31.0,30.0,30.42,ESE,115,3.0,-999.0,97,-99.99,,,0.00,,2013-01-19 10:32:00,
2013-01-19 04:42:00,31.0,30.0,30.42,ESE,115,3.0,-999.0,97,-99.99,,,0.00,,2013-01-19 10:42:00,
2013-01-19 04:52:00,31.0,30.0,30.42,East,80,2.0,-999.0,97,-99.99,,,0.00,,2013-01-19 10:52:00,
2013-01-19 05:03:00,31.0,30.0,30.41,ESE,116,2.0,-999.0,97,-99.99,,,0.00,,2013-01-19 11:03:00,
2013-01-19 05:12:00,31.0,30.0,30.41,ESE,116,2.0,-999.0,97,-99.99,,,0.00,,2013-01-19 11:12:00,
2013-01-19 06:48:00,30.0,29.0,30.42,ESE,116,0.0,-999.0,96,-99.99,,,0.00,,2013-01-19 12:48:00,
2013-01-19 07:03:00,30.0,29.0,30.42,ESE,116,0.0,-999.0,96,-99.99,,,0.00,,2013-01-19 13:03:00,
2013-01-19 07:12:00,30.0,29.0,30.42,ESE,116,0.0,-999.0,96,-99.99,,,0.00,,2013-01-19 13:12:00,
2013-01-19 07:22:00,29.0,28.0,30.43,ESE,116,0.0,-999.0,96,-99.99,,,0.00,,2013-01-19 13:22:00,
2013-01-19 07:34:00,29.0,28.0,30.43,ESE,116,0.0,-999.0,96,-99.99,,,0.00,,2013-01-19 13:34:00,
2013-01-19 07:43:00,29.0,28.0,30.43,ESE,116,0.0,-999.0,96,-99.99,,,0.00,,2013-01-19 13:43:00,
2013-01-19 07:53:00,30.0,29.0,30.43,ESE,118,1.0,-999.0,97,-99.99,,,0.00,,2013-01-19 13:53:00,
2013-01-19 08:02:00,31.0,30.0,30.43,ESE,113,1.0,-999.0,97,-99.99,,,0.00,,2013-01-19 14:02:00,
2013-01-19 08:12:00,31.0,30.0,30.43,ESE,113,1.0,-999.0,97,-99.99,,,0.00,,2013-01-19 14:12:00,
2013-01-19 08:23:00,32.0,31.0,30.43,ESE,113,1.0,-999.0,97,-99.99,,,0.00,,2013-01-19 14:23:00,
2013-01-19 08:34:00,36.0,35.0,30.44,SE,126,1.0,-999.0,98,-99.99,,,0.00,,2013-01-19 14:34:00,
2013-01-19 08:43:00,36.0,35.0,30.44,SE,126,1.0,-999.0,98,-99.99,,,0.00,,2013-01-19 14:43:00,
2013-01-19 08:53:00,38.0,37.0,30.45,SSE,152,2.0,-999.0,96,-99.99,,,0.00,,2013-01-19 14:53:00,
2013-01-19 09:03:00,40.0,38.0,30.45,SE,141,2.0,-999.0,93,-99.99,,,0.00,,2013-01-19 15:03:00,
2013-01-19 09:12:00,40.0,38.0,30.45,SE,141,2.0,-999.0,93,-99.99,,,0.00,,2013-01-19 15:12:00,
2013-01-19 09:23:00,40.0,38.0,30.45,SE,141,2.0,-999.0,93,-99.99,,,0.00,,2013-01-19 15:23:00,
2013-01-19 09:33:00,45.0,38.0,30.46,SE,141,3.0,-999.0,75,-99.99,,,0.00,,2013-01-19 15:33:00,
2013-01-19 09:43:00,45.0,38.0,30.46,SE,141,3.0,-999.0,75,-99.99,,,0.00,,2013-01-19 15:43:00,
2013-01-19 09:53:00,47.0,37.0,30.46,SE,138,2.0,-999.0,67,-99.99,,,0.00,,2013-01-19 15:53:00,
2013-01-19 10:03:00,47.0,36.0,30.45,ESE,102,3.0,-999.0,66,-99.99,,,0.00,,2013-01-19 16:03:00,
2013-01-19 10:13:00,47.0,36.0,30.45,ESE,102,3.0,-999.0,66,-99.99,,,0.00,,2013-01-19 16:13:00,
2013-01-19 10:23:00,49.0,37.0,30.43,WSW,244,2.0,-999.0,64,-99.99,,,0.00,,2013-01-19 16:23:00,
2013-01-19 10:33:00,50.0,36.0,30.43,SSE,164,1.0,-999.0,59,-99.99,,,0.00,,2013-01-19 16:33:00,
2013-01-19 10:43:00,50.0,36.0,30.43,SSE,164,1.0,-999.0,59,-99.99,,,0.00,,2013-01-19 16:43:00,
2013-01-19 10:54:00,52.0,35.0,30.42,SSE,157,4.0,-999.0,52,-99.99,,,0.00,,2013-01-19 16:54:00,
2013-01-19 11:02:00,52.0,34.0,30.40,South,172,4.0,-999.0,51,-99.99,,,0.00,,2013-01-19 17:02:00,
2013-01-19 11:28:00,53.0,35.0,30.40,SSE,166,4.0,-999.0,50,-99.99,,,0.00,,2013-01-19 17:28:00,
2013-01-19 11:35:00,52.0,32.0,30.39,SSW,211,4.0,-999.0,47,-99.99,,,0.00,,2013-01-19 17:35:00,
2013-01-19 11:47:00,52.0,32.0,30.39,SSW,211,4.0,-999.0,47,-99.99,,,0.00,,2013-01-19 17:47:00,
2013-01-19 11:53:00,53.0,35.0,30.37,ESE,120,4.0,-999.0,50,-99.99,,,0.00,,2013-01-19 17:53:00,
2013-01-19 12:13:00,54.0,35.0,30.35,SW,230,4.0,-999.0,48,-99.99,,,0.00,,2013-01-19 18:13:00,
2013-01-19 12:25:00,54.0,35.0,30.35,SW,230,4.0,-999.0,48,-99.99,,,0.00,,2013-01-19 18:25:00,
2013-01-19 12:34:00,55.0,35.0,30.33,SW,234,4.0,-999.0,47,-99.99,,,0.00,,2013-01-19 18:34:00,
2013-01-19 12:45:00,55.0,35.0,30.33,SW,234,4.0,-999.0,47,-99.99,,,0.00,,2013-01-19 18:45:00,
2013-01-19 13:08:00,55.0,33.0,30.31,WSW,239,5.0,-999.0,43,-99.99,,,0.00,,2013-01-19 19:08:00,
2013-01-19 13:29:00,56.0,34.0,30.31,WSW,243,5.0,-999.0,43,-99.99,,,0.00,,2013-01-19 19:29:00,
2013-01-19 13:38:00,56.0,34.0,30.31,WSW,243,5.0,-999.0,43,-99.99,,,0.00,,2013-01-19 19:38:00,
2013-01-19 13:45:00,56.0,34.0,30.31,WSW,243,5.0,-999.0,43,-99.99,,,0.00,,2013-01-19 19:45:00,
2013-01-19 13:54:00,56.0,34.0,30.29,SSW,195,6.0,-999.0,43,-99.99,,,0.00,,2013-01-19 19:54:00,
2013-01-19 14:10:00,56.0,34.0,30.29,SSW,195,6.0,-999.0,43,-99.99,,,0.00,,2013-01-19 20:10:00,
2013-01-19 14:19:00,56.0,34.0,30.29,SSW,195,6.0,-999.0,43,-99.99,,,0.00,,2013-01-19 20:19:00,
2013-01-19 14:25:00,57.0,34.0,30.27,WSW,248,4.0,-999.0,41,-99.99,,,0.00,,2013-01-19 20:25:00,
2013-01-19 14:39:00,57.0,33.0,30.27,SW,222,6.0,-999.0,40,-99.99,,,0.00,,2013-01-19 20:39:00,
2013-01-19 14:50:00,57.0,33.0,30.27,SW,222,6.0,-999.0,40,-99.99,,,0.00,,2013-01-19 20:50:00,
2013-01-19 14:58:00,57.0,33.0,30.26,SW,223,6.0,-999.0,40,-99.99,,,0.00,,2013-01-19 20:58:00,
2013-01-19 15:05:00,56.0,33.0,30.25,SSW,197,5.0,-999.0,41,-99.99,,,0.00,,2013-01-19 21:05:00,
2013-01-19 15:14:00,56.0,33.0,30.25,SSW,197,5.0,-999.0,41,-99.99,,,0.00,,2013-01-19 21:14:00,
2013-01-19 15:25:00,56.0,32.0,30.25,SSW,201,4.0,-999.0,40,-99.99,,,0.00,,2013-01-19 21:25:00,
2013-01-19 15:49:00,57.0,32.0,30.25,South,191,5.0,-999.0,39,-99.99,,,0.00,,2013-01-19 21:49:00,
2013-01-19 16:13:00,58.0,34.0,30.24,SSE,160,3.0,-999.0,40,-99.99,,,0.00,,2013-01-19 22:13:00,
2013-01-19 16:25:00,58.0,33.0,30.24,SW,221,3.0,-999.0,38,-99.99,,,0.00,,2013-01-19 22:25:00,
2013-01-19 16:34:00,57.0,32.0,30.24,SW,225,3.0,-999.0,39,-99.99,,,0.00,,2013-01-19 22:34:00,
2013-01-19 16:46:00,57.0,32.0,30.24,SW,225,3.0,-999.0,39,-99.99,,,0.00,,2013-01-19 22:46:00,
2013-01-19 16:58:00,57.0,32.0,30.24,SW,225,3.0,-999.0,39,-99.99,,,0.00,,2013-01-19 22:58:00,
2013-01-19 17:14:00,55.0,34.0,30.24,SW,223,1.0,-999.0,45,-99.99,,,0.00,,2013-01-19 23:14:00,
2013-01-19 17:25:00,50.0,38.0,30.24,SSW,212,0.0,-999.0,62,-99.99,,,0.00,,2013-01-19 23:25:00,
2013-01-19 17:34:00,47.0,38.0,30.24,SSW,212,0.0,-999.0,70,-99.99,,,0.00,,2013-01-19 23:34:00,
2013-01-19 17:45:00,47.0,38.0,30.24,SSW,212,0.0,-999.0,70,-99.99,,,0.00,,2013-01-19 23:45:00,
2013-01-19 18:07:00,45.0,38.0,30.24,SSW,212,0.0,-999.0,75,-99.99,,,0.00,,2013-01-20 00:07:00,
2013-01-19 18:15:00,43.0,37.0,30.25,SSW,211,0.0,-999.0,78,-99.99,,,0.00,,2013-01-20 00:15:00,
2013-01-19 18:25:00,42.0,36.0,30.25,SSW,211,0.0,-999.0,80,-99.99,,,0.00,,2013-01-20 00:25:00,
2013-01-19 18:35:00,41.0,36.0,30.25,SSW,212,1.0,-999.0,82,-99.99,,,0.00,,2013-01-20 00:35:00,
2013-01-19 18:45:00,41.0,36.0,30.25,SSW,212,1.0,-999.0,82,-99.99,,,0.00,,2013-01-20 00:45:00,
2013-01-19 18:56:00,40.0,35.0,30.25,SSW,211,0.0,-999.0,83,-99.99,,,0.00,,2013-01-20 00:56:00,
2013-01-19 19:03:00,40.0,35.0,30.25,SSW,211,0.0,-999.0,83,-99.99,,,0.00,,2013-01-20 01:03:00,
2013-01-19 19:19:00,40.0,35.0,30.25,SSW,211,0.0,-999.0,83,-99.99,,,0.00,,2013-01-20 01:19:00,
2013-01-19 19:25:00,39.0,35.0,30.25,SSW,212,0.0,-999.0,85,-99.99,,,0.00,,2013-01-20 01:25:00,
2013-01-19 19:36:00,38.0,34.0,30.25,SSW,212,0.0,-999.0,87,-99.99,,,0.00,,2013-01-20 01:36:00,
2013-01-19 19:47:00,38.0,34.0,30.25,SSW,212,0.0,-999.0,87,-99.99,,,0.00,,2013-01-20 01:47:00,
2013-01-19 19:57:00,38.0,35.0,30.25,SSW,212,0.0,-999.0,88,-99.99,,,0.00,,2013-01-20 01:57:00,
2013-01-19 20:14:00,37.0,34.0,30.25,SSW,211,0.0,-999.0,89,-99.99,,,0.00,,2013-01-20 02:14:00,
2013-01-19 20:25:00,37.0,34.0,30.26,SSW,212,0.0,-999.0,90,-99.99,,,0.00,,2013-01-20 02:25:00,
2013-01-19 20:35:00,37.0,34.0,30.25,SSW,212,0.0,-999.0,89,-99.99,,,0.00,,2013-01-20 02:35:00,
2013-01-19 20:44:00,37.0,34.0,30.25,SSW,212,0.0,-999.0,89,-99.99,,,0.00,,2013-01-20 02:44:00,
2013-01-19 20:55:00,37.0,34.0,30.25,SSW,212,0.0,-999.0,89,-99.99,,,0.00,,2013-01-20 02:55:00,
2013-01-19 21:08:00,36.0,33.0,30.25,SSW,211,0.0,-999.0,89,-99.99,,,0.00,,2013-01-20 03:08:00,
2013-01-19 21:14:00,36.0,33.0,30.25,SSW,211,0.0,-999.0,89,-99.99,,,0.00,,2013-01-20 03:14:00,
2013-01-19 21:24:00,36.0,34.0,30.25,SSW,211,0.0,-999.0,91,-99.99,,,0.00,,2013-01-20 03:24:00,
2013-01-19 21:38:00,36.0,34.0,30.26,SSW,211,0.0,-999.0,91,-99.99,,,0.00,,2013-01-20 03:38:00,
2013-01-19 21:45:00,36.0,34.0,30.26,SSW,211,0.0,-999.0,91,-99.99,,,0.00,,2013-01-20 03:45:00,
2013-01-19 21:57:00,35.0,33.0,30.25,SSW,211,0.0,-999.0,91,-99.99,,,0.00,,2013-01-20 03:57:00,
2013-01-19 22:04:00,35.0,33.0,30.26,SSW,211,0.0,-999.0,92,-99.99,,,0.00,,2013-01-20 04:04:00,
2013-01-19 22:14:00,35.0,33.0,30.26,SSW,211,0.0,-999.0,92,-99.99,,,0.00,,2013-01-20 04:14:00,
2013-01-19 22:25:00,36.0,34.0,30.26,SSW,211,0.0,-999.0,93,-99.99,,,0.00,,2013-01-20 04:25:00,
2013-01-19 22:34:00,35.0,33.0,30.26,SSW,212,0.0,-999.0,92,-99.99,,,0.00,,2013-01-20 04:34:00,
2013-01-19 22:44:00,35.0,33.0,30.26,SSW,212,0.0,-999.0,92,-99.99,,,0.00,,2013-01-20 04:44:00,
2013-01-19 22:54:00,35.0,33.0,30.26,SSW,211,0.0,-999.0,92,-99.99,,,0.00,,2013-01-20 04:54:00,
2013-01-19 23:04:00,35.0,33.0,30.26,SSW,212,0.0,-999.0,93,-99.99,,,0.00,,2013-01-20 05:04:00,
2013-01-19 23:12:00,35.0,33.0,30.26,SSW,212,0.0,-999.0,93,-99.99,,,0.00,,2013-01-20 05:12:00,
2013-01-19 23:22:00,34.0,32.0,30.25,SSW,212,0.0,-999.0,93,-99.99,,,0.00,,2013-01-20 05:22:00,
2013-01-19 23:32:00,34.0,32.0,30.25,SSW,211,0.0,-999.0,93,-99.99,,,0.00,,2013-01-20 05:32:00,
2013-01-19 23:42:00,34.0,32.0,30.25,SSW,211,0.0,-999.0,93,-99.99,,,0.00,,2013-01-20 05:42:00,
2013-01-19 23:53:00,33.0,31.0,30.24,SSW,211,0.0,-999.0,93,-99.99,,,0.00,,2013-01-20 05:53:00,